This is the latest recevied weather packets stored in our database for station/object TA6B-11. If no packets are shown the sender has not sent any weather packets the latest 10 day(s).
| Time | Temp. | Humidity | Pressure | Rain* | Wind** | Luminosity | Snow |
|---|---|---|---|---|---|---|---|
| 1787829100 | 28.89° C | 68% | 1001 hPa | - | - | 0 W/m² | - |
| 1787828775 | 29.44° C | 66% | 1001 hPa | - | - | 0 W/m² | - |
| 1787828450 | 29.44° C | 66% | 1001 hPa | - | - | 0 W/m² | - |
| 1787828127 | 29.44° C | 67% | 1001 hPa | - | - | 0 W/m² | - |
| 1787827803 | 29.44° C | 66% | 1001 hPa | - | - | 0 W/m² | - |
| 1787827479 | 29.44° C | 67% | 1001 hPa | - | - | 0 W/m² | - |
| 1787827334 | 29.44° C | 68% | 1001 hPa | - | - | 0 W/m² | - |
| 1787827010 | 28.89° C | 68% | 1001 hPa | - | - | 0 W/m² | - |
| 1787826685 | 28.89° C | 67% | 1001 hPa | - | - | 0 W/m² | - |
| 1787826359 | 29.44° C | 66% | 1001 hPa | - | - | 0 W/m² | - |
| 1787826035 | 29.44° C | 67% | 1001 hPa | - | - | 0 W/m² | - |
| 1787825710 | 30° C | 65% | 1001 hPa | - | - | 0 W/m² | - |
| 1787825386 | 30° C | 64% | 1001 hPa | - | - | 0 W/m² | - |
| 1787825062 | 30.56° C | 60% | 1001 hPa | - | - | 0 W/m² | - |
| 1787824738 | 31.11° C | 59% | 1001 hPa | - | - | 0 W/m² | - |
| 1787824413 | 30.56° C | 60% | 1001 hPa | - | - | 0 W/m² | - |
| 1787824090 | 30° C | 60% | 1001 hPa | - | - | 0 W/m² | - |
| 1787823765 | 29.44° C | 63% | 1001 hPa | - | - | 0 W/m² | - |
| 1787823442 | 28.89° C | 64% | 1001 hPa | - | - | 0 W/m² | - |
| 1787823119 | 28.89° C | 62% | 1001 hPa | - | - | 0 W/m² | - |
| 1787822795 | 28.89° C | 66% | 1001 hPa | - | - | 0 W/m² | - |
| 1787822471 | 28.89° C | 66% | 1001 hPa | - | - | 0 W/m² | - |
| 1787822147 | 28.33° C | 66% | 1001 hPa | - | - | 0 W/m² | - |
| 1787821822 | 28.33° C | 65% | 1001 hPa | - | - | 0 W/m² | - |
| 1787821456 | 28.89° C | 63% | 1001 hPa | - | - | 0 W/m² | - |
* Rain since midnight (hover to see other rain measurements)
** Current wind speed in m/s (hover to see current wind gust speed)